Time;durP1;ratioP1;P1;durP2;ratioP2;P2;SDS_P1;SDS_P2;PMS_P1;PMS_P2;Temp;Humidity;BMP_temperature;BMP_pressure;BME280_temperature;BME280_humidity;BME280_pressure;Samples;Min_cycle;Max_cycle;Signal;HPM_P1;HPM_P2
2022/01/18 00:02:34;;;;;;;6.57;5.00;;;;;;;1.80;100.00;96194.19;5039826;28;20629;-74
2022/01/18 00:05:20;;;;;;;6.43;5.30;;;;;;;1.83;100.00;96190.00;5050226;28;20194;-74
2022/01/18 00:08:06;;;;;;;5.47;4.60;;;;;;;1.73;100.00;96177.94;5052597;28;20560;-74
2022/01/18 00:10:52;;;;;;;7.83;5.97;;;;;;;1.78;100.00;96184.94;5065566;28;20201;-74
2022/01/18 00:13:47;;;;;;;5.70;4.80;;;;;;;1.78;100.00;96193.78;5066420;28;20202;-74
2022/01/18 00:17:00;;;;;;;6.27;5.30;;;;;;;1.70;100.00;96197.53;5037917;28;20711;-74
2022/01/18 00:19:46;;;;;;;5.47;4.80;;;;;;;1.62;100.00;96208.59;5054973;28;20622;-73
2022/01/18 00:22:32;;;;;;;6.60;5.17;;;;;;;1.61;100.00;96197.06;5062510;28;20541;-74
2022/01/18 00:25:18;;;;;;;9.10;5.60;;;;;;;1.58;100.00;96207.81;5055545;28;20311;-74
2022/01/18 00:28:07;;;;;;;9.30;5.27;;;;;;;1.45;100.00;96203.78;5042129;28;20217;-74
2022/01/18 00:34:20;;;;;;;6.10;5.40;;;;;;;1.46;100.00;96211.50;5038892;28;20194;-74
2022/01/18 00:39:53;;;;;;;8.07;6.67;;;;;;;1.42;100.00;96205.31;5065162;28;20205;-74
2022/01/18 00:42:39;;;;;;;8.20;6.07;;;;;;;1.43;100.00;96217.59;5052486;28;20217;-74
2022/01/18 00:45:25;;;;;;;10.00;6.20;;;;;;;1.47;100.00;96220.34;5052005;28;20190;-74
2022/01/18 00:48:11;;;;;;;7.77;6.13;;;;;;;1.44;100.00;96226.47;5038582;28;20301;-74
2022/01/18 00:50:57;;;;;;;7.57;6.07;;;;;;;1.51;100.00;96235.41;5044267;28;20222;-74
2022/01/18 00:53:45;;;;;;;7.23;6.03;;;;;;;1.61;100.00;96234.78;5039818;28;20191;-74
2022/01/18 00:56:32;;;;;;;7.27;6.17;;;;;;;1.58;100.00;96235.47;5035600;28;20199;-74
2022/01/18 00:59:19;;;;;;;7.03;5.87;;;;;;;1.60;100.00;96243.19;5022618;28;20335;-74
2022/01/18 01:02:05;;;;;;;8.17;5.70;;;;;;;1.58;100.00;96250.88;5041632;28;20285;-74
2022/01/18 01:04:51;;;;;;;6.77;5.87;;;;;;;1.52;100.00;96244.25;5052314;28;20195;-74
2022/01/18 01:07:40;;;;;;;8.50;6.83;;;;;;;1.59;100.00;96252.41;5042289;28;20221;-74
2022/01/18 01:10:26;;;;;;;7.23;5.97;;;;;;;1.63;100.00;96247.88;5056598;28;20236;-74
2022/01/18 01:13:13;;;;;;;7.77;5.83;;;;;;;1.52;100.00;96247.72;5038334;28;20663;-74
2022/01/18 01:34:38;;;;;;;7.50;6.07;;;;;;;1.67;100.00;96272.91;5044283;28;20268;-74
2022/01/18 01:43:27;;;;;;;9.07;6.70;;;;;;;1.76;100.00;96274.19;5049050;28;20233;-74
2022/01/18 01:46:13;;;;;;;6.80;5.60;;;;;;;1.80;100.00;96279.63;5025522;28;20195;-74
2022/01/18 01:49:01;;;;;;;6.20;5.50;;;;;;;1.75;100.00;96269.94;5053804;28;20574;-74
2022/01/18 01:51:48;;;;;;;7.57;5.43;;;;;;;1.76;100.00;96276.09;5058849;28;20282;-74
2022/01/18 01:54:34;;;;;;;7.33;6.30;;;;;;;1.75;100.00;96277.25;5054361;28;20597;-74
2022/01/18 01:57:21;;;;;;;8.63;6.47;;;;;;;1.73;100.00;96274.13;5058244;28;20213;-74
2022/01/18 02:00:10;;;;;;;6.70;5.87;;;;;;;1.68;100.00;96277.16;5044297;28;20655;-75
2022/01/18 02:02:56;;;;;;;9.47;6.33;;;;;;;1.68;100.00;96269.84;5057970;28;20608;-73
2022/01/18 02:05:43;;;;;;;8.17;6.23;;;;;;;1.67;100.00;96268.28;5048652;28;20202;-74
2022/01/18 02:08:29;;;;;;;7.27;5.93;;;;;;;1.63;100.00;96267.47;5053406;28;20305;-74
2022/01/18 02:11:15;;;;;;;8.40;6.67;;;;;;;1.56;100.00;96262.00;5055594;28;20190;-74
2022/01/18 02:14:01;;;;;;;7.90;6.20;;;;;;;1.44;100.00;96256.09;5063711;28;20222;-74
2022/01/18 02:22:57;;;;;;;7.53;6.53;;;;;;;1.31;100.00;96255.50;5047103;28;20242;-74
2022/01/18 02:25:43;;;;;;;8.63;6.30;;;;;;;1.32;100.00;96259.78;5053874;28;20226;-74
2022/01/18 02:28:30;;;;;;;7.40;6.60;;;;;;;1.28;100.00;96264.31;5047654;28;20312;-74
2022/01/18 02:31:19;;;;;;;8.23;6.77;;;;;;;1.27;100.00;96247.41;5028849;28;20190;-74
2022/01/18 02:34:14;;;;;;;9.20;6.83;;;;;;;1.32;100.00;96242.84;5037482;28;20201;-74
2022/01/18 02:37:03;;;;;;;9.73;6.87;;;;;;;1.34;100.00;96254.78;5049879;28;20309;-74
2022/01/18 02:39:49;;;;;;;8.80;7.27;;;;;;;1.41;100.00;96237.97;5063994;28;20640;-74
2022/01/18 02:42:44;;;;;;;9.90;7.60;;;;;;;1.51;100.00;96238.09;5051966;28;20190;-75
2022/01/18 02:45:30;;;;;;;8.83;7.60;;;;;;;1.43;100.00;96241.84;5044028;28;20290;-74
2022/01/18 02:48:15;;;;;;;9.00;7.30;;;;;;;1.40;100.00;96244.47;5051545;28;20222;-74
2022/01/18 02:51:01;;;;;;;8.77;7.23;;;;;;;1.37;100.00;96240.63;5059836;28;20196;-74
2022/01/18 02:54:10;;;;;;;9.87;7.17;;;;;;;1.48;100.00;96238.06;5047907;28;20198;-74
2022/01/18 02:57:03;;;;;;;9.77;7.40;;;;;;;1.49;100.00;96235.00;5062480;28;20210;-74
2022/01/18 03:00:04;;;;;;;9.00;7.23;;;;;;;1.65;100.00;96240.16;5060822;28;20234;-74
2022/01/18 03:05:55;;;;;;;9.23;7.93;;;;;;;1.68;100.00;96240.22;5062364;28;20193;-74
2022/01/18 03:08:41;;;;;;;9.17;7.03;;;;;;;1.60;100.00;96248.56;5059047;28;20279;-74
2022/01/18 03:11:27;;;;;;;8.43;7.57;;;;;;;1.54;100.00;96242.75;5034589;28;20527;-74
2022/01/18 03:14:13;;;;;;;10.07;7.90;;;;;;;1.51;100.00;96240.78;5051040;28;20216;-74
2022/01/18 03:16:59;;;;;;;11.13;8.23;;;;;;;1.52;100.00;96245.03;5050033;28;20214;-74
2022/01/18 03:19:44;;;;;;;12.73;7.93;;;;;;;1.53;100.00;96248.50;5064818;28;20193;-74
2022/01/18 03:22:31;;;;;;;10.90;8.53;;;;;;;1.53;100.00;96254.66;5061491;28;20195;-74
2022/01/18 03:25:38;;;;;;;11.33;7.70;;;;;;;1.51;100.00;96267.69;5056653;28;20209;-74
2022/01/18 03:28:26;;;;;;;9.07;7.90;;;;;;;1.55;100.00;96270.44;5051487;28;20222;-74
2022/01/18 03:31:12;;;;;;;10.43;8.73;;;;;;;1.50;100.00;96260.00;5053158;28;20190;-73
2022/01/18 03:33:58;;;;;;;11.00;8.00;;;;;;;1.62;100.00;96273.22;5061473;28;20261;-74
2022/01/18 03:36:43;;;;;;;10.37;8.60;;;;;;;1.56;100.00;96263.94;5051910;28;20687;-74
2022/01/18 03:39:29;;;;;;;11.00;8.23;;;;;;;1.60;100.00;96265.50;5042294;28;20202;-74
2022/01/18 03:45:06;;;;;;;10.67;8.10;;;;;;;1.61;100.00;96259.00;5040983;28;20201;-74
2022/01/18 03:47:54;;;;;;;10.70;8.27;;;;;;;1.63;100.00;96262.09;5020817;28;20234;-74
2022/01/18 03:50:41;;;;;;;11.97;8.70;;;;;;;1.65;100.00;96262.50;5045277;28;20841;-74
2022/01/18 03:53:27;;;;;;;12.07;9.53;;;;;;;1.61;100.00;96255.53;5041187;28;20718;-74
2022/01/18 03:56:13;;;;;;;10.50;8.87;;;;;;;1.58;100.00;96248.19;5045107;28;20225;-74
2022/01/18 03:58:59;;;;;;;11.57;8.70;;;;;;;1.58;100.00;96261.66;5061691;28;20284;-74
2022/01/18 04:01:45;;;;;;;12.60;8.70;;;;;;;1.55;100.00;96268.53;5064147;28;20293;-74
2022/01/18 04:04:31;;;;;;;12.07;9.07;;;;;;;1.54;100.00;96268.91;5054993;28;20199;-74
2022/01/18 04:07:17;;;;;;;10.50;8.83;;;;;;;1.56;100.00;96258.53;5038368;28;20209;-74
2022/01/18 04:10:04;;;;;;;12.63;9.67;;;;;;;1.55;100.00;96263.16;5057650;28;20274;-74
2022/01/18 04:12:50;;;;;;;9.63;8.33;;;;;;;1.52;100.00;96261.19;5058074;28;20202;-74
2022/01/18 04:15:36;;;;;;;11.37;9.27;;;;;;;1.46;100.00;96261.88;5055825;28;20198;-74
2022/01/18 04:18:35;;;;;;;12.20;9.40;;;;;;;1.43;100.00;96265.28;5030108;28;20642;-74
2022/01/18 04:27:39;;;;;;;12.47;9.17;;;;;;;1.46;100.00;96265.31;5037271;28;20222;-74
2022/01/18 04:30:25;;;;;;;11.17;9.40;;;;;;;1.44;100.00;96277.63;5047595;28;20198;-74
2022/01/18 04:33:11;;;;;;;12.37;9.40;;;;;;;1.43;100.00;96282.22;5058306;28;20194;-74
2022/01/18 04:35:58;;;;;;;12.93;9.67;;;;;;;1.40;100.00;96285.63;5061735;28;20217;-74
2022/01/18 04:38:44;;;;;;;14.77;10.87;;;;;;;1.34;100.00;96287.06;5048147;28;20206;-74
2022/01/18 04:41:31;;;;;;;14.07;10.20;;;;;;;1.40;100.00;96290.22;5059132;28;20664;-74
2022/01/18 04:50:26;;;;;;;13.07;10.10;;;;;;;1.35;100.00;96295.94;5047898;28;20190;-74
2022/01/18 04:53:11;;;;;;;13.77;11.13;;;;;;;1.27;100.00;96291.59;5047420;28;20340;-75
2022/01/18 04:56:03;;;;;;;16.10;10.90;;;;;;;1.37;100.00;96297.13;5058525;28;20201;-74
2022/01/18 04:58:48;;;;;;;15.50;10.63;;;;;;;1.35;100.00;96304.00;5043620;28;20670;-74
2022/01/18 05:01:37;;;;;;;14.93;10.90;;;;;;;1.34;100.00;96305.91;5049819;28;20194;-74
2022/01/18 05:04:23;;;;;;;15.37;11.53;;;;;;;1.42;100.00;96307.59;5047703;28;20630;-74
2022/01/18 05:07:13;;;;;;;14.83;11.17;;;;;;;1.39;100.00;96291.38;5045621;28;20695;-74
2022/01/18 05:09:59;;;;;;;16.70;12.83;;;;;;;1.44;100.00;96308.00;5061144;28;20212;-74
2022/01/18 05:12:47;;;;;;;18.23;12.83;;;;;;;1.41;100.00;96305.25;5063503;28;20306;-75
2022/01/18 05:15:41;;;;;;;17.23;12.20;;;;;;;1.46;100.00;96313.03;5038864;28;20198;-74
2022/01/18 05:21:24;;;;;;;28.83;12.47;;;;;;;1.47;100.00;96303.78;5042322;28;20194;-75
2022/01/18 05:24:10;;;;;;;16.20;12.17;;;;;;;1.52;100.00;96317.72;5034341;28;20201;-74
2022/01/18 05:26:58;;;;;;;13.53;11.13;;;;;;;1.51;100.00;96312.72;5052975;28;20279;-74
2022/01/18 05:29:44;;;;;;;19.17;12.23;;;;;;;1.59;100.00;96311.66;5048578;28;20244;-74
2022/01/18 05:32:30;;;;;;;15.97;11.90;;;;;;;1.69;100.00;96319.09;5046822;28;20201;-74
2022/01/18 05:35:16;;;;;;;14.97;11.47;;;;;;;1.81;100.00;96316.16;5052695;28;20190;-74
2022/01/18 05:38:02;;;;;;;15.97;12.23;;;;;;;1.78;100.00;96323.06;5034747;28;20216;-75
2022/01/18 05:40:49;;;;;;;16.73;12.47;;;;;;;1.89;100.00;96323.97;5049083;28;20205;-75
2022/01/18 05:43:35;;;;;;;16.73;12.37;;;;;;;1.97;100.00;96331.00;5038231;28;20276;-75
2022/01/18 05:46:21;;;;;;;15.60;12.00;;;;;;;2.03;100.00;96328.75;5037391;28;20191;-75
2022/01/18 05:49:07;;;;;;;19.33;14.70;;;;;;;1.97;100.00;96333.69;5052894;28;20205;-75
2022/01/18 05:51:53;;;;;;;18.53;13.70;;;;;;;2.16;100.00;96330.84;5061134;28;20195;-74
2022/01/18 05:54:39;;;;;;;18.10;14.50;;;;;;;2.04;100.00;96324.91;5049453;28;20717;-74
2022/01/18 05:57:25;;;;;;;16.93;13.03;;;;;;;2.04;100.00;96320.31;5029738;28;20285;-74
2022/01/18 06:00:19;;;;;;;18.23;12.57;;;;;;;2.08;100.00;96318.44;5022124;28;20643;-75
2022/01/18 06:03:13;;;;;;;22.57;12.27;;;;;;;2.04;100.00;96325.69;5048821;28;20241;-75
2022/01/18 06:09:04;;;;;;;16.30;11.83;;;;;;;1.71;100.00;96322.19;5061224;28;20190;-75
2022/01/18 06:11:50;;;;;;;16.17;12.00;;;;;;;1.64;100.00;96320.19;5052880;28;20248;-74
2022/01/18 06:14:36;;;;;;;13.80;10.67;;;;;;;1.65;100.00;96319.03;5043440;28;20202;-74
2022/01/18 06:17:22;;;;;;;14.27;10.77;;;;;;;1.61;100.00;96317.44;5040418;28;20300;-74
2022/01/18 06:20:09;;;;;;;13.13;10.83;;;;;;;1.49;100.00;96317.69;5044052;28;20282;-74
2022/01/18 06:22:55;;;;;;;15.23;11.07;;;;;;;1.39;100.00;96332.53;5051204;28;20198;-74
2022/01/18 06:25:42;;;;;;;16.13;11.40;;;;;;;1.45;100.00;96327.59;5045463;28;20199;-74
2022/01/18 06:28:27;;;;;;;17.43;12.73;;;;;;;1.38;100.00;96305.97;5048544;28;20700;-74
2022/01/18 06:31:13;;;;;;;15.07;11.73;;;;;;;1.34;100.00;96330.13;5055840;28;20638;-74
2022/01/18 06:34:00;;;;;;;16.03;10.00;;;;;;;1.15;100.00;96331.00;5044138;28;20198;-74
2022/01/18 06:36:46;;;;;;;16.27;12.70;;;;;;;1.11;100.00;96316.75;5039699;28;20187;-74
2022/01/18 06:39:32;;;;;;;17.03;12.27;;;;;;;1.18;100.00;96335.69;5043925;28;20206;-75
2022/01/18 06:42:17;;;;;;;16.87;13.13;;;;;;;1.06;100.00;96345.88;5046093;28;20190;-75
2022/01/18 06:45:04;;;;;;;18.40;13.47;;;;;;;0.87;100.00;96322.53;5069114;28;20200;-75
2022/01/18 06:47:50;;;;;;;23.60;14.30;;;;;;;0.95;100.00;96334.94;5039176;28;20306;-75
2022/01/18 06:50:36;;;;;;;20.93;14.07;;;;;;;0.96;100.00;96355.34;5066464;28;20625;-75
2022/01/18 06:53:22;;;;;;;21.93;15.70;;;;;;;0.90;100.00;96366.75;5032986;28;20198;-75
2022/01/18 06:56:07;;;;;;;20.83;14.90;;;;;;;0.84;100.00;96355.50;5018257;28;20263;-75
2022/01/18 06:58:54;;;;;;;18.83;13.50;;;;;;;0.78;100.00;96365.00;5037771;28;20294;-75
2022/01/18 07:01:40;;;;;;;21.27;12.63;;;;;;;0.75;100.00;96373.78;5067627;28;20241;-75
2022/01/18 07:04:27;;;;;;;17.30;12.80;;;;;;;0.83;100.00;96377.38;5071165;28;20192;-75
2022/01/18 07:07:13;;;;;;;19.43;15.03;;;;;;;0.79;100.00;96376.53;5030903;28;20217;-75
2022/01/18 07:09:58;;;;;;;20.53;13.83;;;;;;;0.74;100.00;96374.94;5060850;28;20204;-75
2022/01/18 07:12:44;;;;;;;17.00;12.20;;;;;;;0.62;100.00;96393.13;5051828;28;20194;-75
2022/01/18 07:15:30;;;;;;;18.17;12.90;;;;;;;0.84;100.00;96382.41;5038066;28;20281;-75
2022/01/18 07:18:16;;;;;;;21.33;12.57;;;;;;;0.82;100.00;96390.06;5059907;28;20214;-75
2022/01/18 07:21:02;;;;;;;16.70;12.27;;;;;;;0.94;100.00;96400.63;5053049;28;20200;-75
2022/01/18 07:23:50;;;;;;;16.87;12.37;;;;;;;0.88;100.00;96388.59;5053780;28;20287;-75
2022/01/18 07:26:36;;;;;;;17.53;11.80;;;;;;;0.98;100.00;96392.63;5054289;28;20228;-75
2022/01/18 07:29:22;;;;;;;17.37;9.93;;;;;;;1.04;100.00;96386.59;5060922;28;20186;-75
2022/01/18 07:32:09;;;;;;;18.20;10.43;;;;;;;1.15;100.00;96392.91;5030756;28;20241;-75
2022/01/18 07:34:57;;;;;;;19.07;11.57;;;;;;;1.27;100.00;96400.78;5035677;28;20238;-75
2022/01/18 07:37:43;;;;;;;15.60;11.97;;;;;;;1.32;100.00;96410.50;5061861;28;20206;-74
2022/01/18 07:40:31;;;;;;;15.37;11.13;;;;;;;1.34;100.00;96404.75;5058366;28;20570;-75
2022/01/18 07:43:18;;;;;;;15.87;11.60;;;;;;;1.47;100.00;96420.34;5032519;28;20621;-75
2022/01/18 07:46:04;;;;;;;13.53;11.60;;;;;;;1.48;100.00;96405.72;5018258;28;20191;-75
2022/01/18 07:48:50;;;;;;;13.33;10.43;;;;;;;1.54;100.00;96415.06;5063410;28;20236;-74
2022/01/18 07:51:36;;;;;;;14.57;10.97;;;;;;;1.70;100.00;96429.13;5054278;28;20232;-75
2022/01/18 07:54:22;;;;;;;14.20;11.57;;;;;;;1.84;100.00;96432.03;5055600;28;20197;-75
2022/01/18 07:57:08;;;;;;;15.57;11.57;;;;;;;1.75;100.00;96439.59;5063699;28;20702;-74
2022/01/18 07:59:54;;;;;;;15.47;11.47;;;;;;;1.66;100.00;96446.38;5071316;28;20697;-75
2022/01/18 08:02:41;;;;;;;16.37;11.37;;;;;;;1.57;100.00;96443.94;5050495;28;20236;-75
2022/01/18 08:05:27;;;;;;;18.30;12.57;;;;;;;1.62;100.00;96440.94;5054235;28;20325;-75
2022/01/18 08:08:13;;;;;;;17.73;12.20;;;;;;;1.66;100.00;96433.72;5030964;28;20238;-74
2022/01/18 08:10:59;;;;;;;16.57;11.93;;;;;;;1.66;100.00;96443.69;5053004;28;20240;-75
2022/01/18 08:13:48;;;;;;;16.30;10.90;;;;;;;1.64;100.00;96446.75;5072513;28;20221;-74
2022/01/18 08:16:47;;;;;;;16.67;11.33;;;;;;;1.64;100.00;96440.59;5048028;28;20681;-74
2022/01/18 08:19:35;;;;;;;13.53;9.20;;;;;;;1.56;100.00;96445.06;5052625;28;20205;-74
2022/01/18 08:22:21;;;;;;;15.83;10.17;;;;;;;1.63;100.00;96450.56;5031738;28;20200;-74
2022/01/18 08:25:07;;;;;;;18.87;8.87;;;;;;;1.61;100.00;96455.56;5018164;28;20199;-74
2022/01/18 08:27:53;;;;;;;10.40;8.87;;;;;;;1.69;100.00;96451.03;5048023;28;20240;-75
2022/01/18 08:30:39;;;;;;;9.57;7.37;;;;;;;1.75;100.00;96438.84;5066336;28;20193;-75
2022/01/18 08:33:25;;;;;;;11.53;8.13;;;;;;;1.91;100.00;96456.38;5056478;28;20595;-74
2022/01/18 08:36:11;;;;;;;11.40;7.60;;;;;;;1.97;100.00;96452.22;5057897;28;20567;-75
2022/01/18 08:38:57;;;;;;;11.47;7.40;;;;;;;2.09;100.00;96452.00;5030811;28;20605;-76
2022/01/18 08:41:43;;;;;;;9.00;7.50;;;;;;;2.33;100.00;96443.47;5050498;28;20213;-75
2022/01/18 08:44:29;;;;;;;11.70;8.03;;;;;;;2.54;100.00;96445.66;5051401;28;20214;-75
2022/01/18 08:47:17;;;;;;;12.13;9.33;;;;;;;2.62;100.00;96449.19;5048955;28;20215;-75
2022/01/18 08:50:04;;;;;;;11.97;8.07;;;;;;;2.63;100.00;96443.44;5055067;28;20198;-75
2022/01/18 08:52:52;;;;;;;9.63;7.70;;;;;;;2.73;100.00;96437.41;5053105;28;20681;-75
2022/01/18 08:55:38;;;;;;;13.27;6.80;;;;;;;2.76;100.00;96446.66;5044483;28;20868;-75
2022/01/18 08:58:25;;;;;;;7.90;5.80;;;;;;;2.75;100.00;96447.81;5041248;28;20224;-74
2022/01/18 09:01:12;;;;;;;7.83;5.83;;;;;;;2.97;100.00;96447.66;5018976;28;20284;-74
2022/01/18 09:04:01;;;;;;;7.13;5.70;;;;;;;2.83;100.00;96442.13;5043156;28;20193;-74
2022/01/18 09:06:50;;;;;;;13.37;6.70;;;;;;;2.79;100.00;96443.22;5051521;28;20277;-74
2022/01/18 09:09:41;;;;;;;11.67;6.20;;;;;;;2.79;100.00;96448.63;5052311;28;20221;-74
2022/01/18 09:12:26;;;;;;;6.87;4.60;;;;;;;2.78;100.00;96455.19;5056674;28;20267;-75
2022/01/18 09:15:12;;;;;;;8.10;4.70;;;;;;;2.80;100.00;96459.03;5002672;28;20240;-74
2022/01/18 09:17:59;;;;;;;7.23;4.60;;;;;;;2.87;100.00;96453.72;5058047;28;20292;-75
2022/01/18 09:20:45;;;;;;;7.90;4.57;;;;;;;3.01;100.00;96469.28;5055188;28;20193;-74
2022/01/18 09:23:31;;;;;;;7.53;5.07;;;;;;;2.98;100.00;96461.94;5055095;28;20597;-74
2022/01/18 09:26:17;;;;;;;9.33;4.80;;;;;;;2.84;100.00;96461.78;5026158;28;20207;-74
2022/01/18 09:29:03;;;;;;;7.50;3.87;;;;;;;2.90;100.00;96466.47;5030630;28;20298;-74
2022/01/18 09:31:49;;;;;;;8.90;2.33;;;;;;;2.89;100.00;96472.25;5031388;28;20679;-74
2022/01/18 09:34:35;;;;;;;4.30;2.17;;;;;;;2.90;100.00;96477.25;5009806;28;20354;-74
2022/01/18 09:37:21;;;;;;;11.90;2.93;;;;;;;3.10;100.00;96467.09;5043390;28;20751;-74
2022/01/18 09:40:07;;;;;;;6.77;2.53;;;;;;;3.21;100.00;96467.94;5050771;28;20205;-74
2022/01/18 09:42:59;;;;;;;4.80;1.90;;;;;;;3.35;99.85;96471.56;5035088;28;20228;-74
2022/01/18 09:45:46;;;;;;;8.00;2.10;;;;;;;3.61;100.00;96482.19;5050783;28;20655;-74
2022/01/18 09:48:34;;;;;;;6.83;2.83;;;;;;;3.60;100.00;96469.84;5060886;28;20302;-74
2022/01/18 09:51:21;;;;;;;7.40;2.20;;;;;;;3.87;98.63;96469.69;5044573;28;20645;-74
2022/01/18 09:54:06;;;;;;;3.60;1.87;;;;;;;4.10;100.00;96472.91;5049842;28;20186;-75
2022/01/18 09:56:52;;;;;;;5.87;3.10;;;;;;;4.21;96.67;96468.34;5052781;28;20194;-74
2022/01/18 09:59:38;;;;;;;7.17;2.50;;;;;;;4.34;97.02;96475.00;5050194;28;20186;-74
2022/01/18 10:02:24;;;;;;;6.90;2.70;;;;;;;4.50;94.10;96468.13;5049786;28;20634;-74
2022/01/18 10:05:37;;;;;;;6.87;2.90;;;;;;;4.34;95.84;96464.97;5030954;28;20606;-74
2022/01/18 10:08:24;;;;;;;11.57;2.77;;;;;;;4.27;96.98;96456.03;5028498;28;20572;-74
2022/01/18 10:11:17;;;;;;;11.33;3.37;;;;;;;4.13;97.17;96451.31;5030992;28;20577;-74
2022/01/18 10:14:03;;;;;;;6.07;2.63;;;;;;;4.12;97.00;96460.59;5030270;28;20241;-75
2022/01/18 10:16:49;;;;;;;6.23;2.87;;;;;;;4.20;99.24;96459.47;5032005;28;20191;-74
2022/01/18 10:19:50;;;;;;;9.00;3.57;;;;;;;4.28;100.00;96449.44;5046472;28;20193;-74
2022/01/18 10:22:42;;;;;;;6.60;3.30;;;;;;;4.34;98.36;96451.44;5048016;28;20197;-74
2022/01/18 10:25:33;;;;;;;7.90;3.20;;;;;;;4.47;95.72;96430.22;5050223;28;20266;-74
2022/01/18 10:28:34;;;;;;;6.37;2.27;;;;;;;4.44;94.57;96437.19;5051672;28;20313;-74
2022/01/18 10:31:41;;;;;;;5.13;2.70;;;;;;;4.81;100.00;96432.28;5027771;28;20277;-74
2022/01/18 10:37:29;;;;;;;7.53;2.80;;;;;;;4.89;96.50;96423.03;5037776;28;20596;-74
2022/01/18 10:40:17;;;;;;;13.93;3.07;;;;;;;5.28;90.80;96396.00;5060136;28;20197;-74
2022/01/18 10:43:07;;;;;;;5.33;2.30;;;;;;;5.55;93.94;96426.22;5032456;28;20218;-74
2022/01/18 10:46:10;;;;;;;6.60;2.33;;;;;;;5.77;85.07;96412.25;5042357;28;20666;-74
2022/01/18 10:48:56;;;;;;;6.83;2.80;;;;;;;5.28;86.53;96398.72;5053823;28;20321;-74
2022/01/18 10:51:48;;;;;;;5.90;2.53;;;;;;;5.24;88.08;96397.16;5037920;28;20597;-74
2022/01/18 10:54:37;;;;;;;7.37;2.63;;;;;;;5.11;88.71;96398.72;5052799;28;20179;-74
2022/01/18 10:57:24;;;;;;;4.87;2.43;;;;;;;4.98;90.79;96387.47;5049236;28;20292;-74
2022/01/18 11:00:25;;;;;;;7.87;2.90;;;;;;;4.79;91.10;96377.75;5018544;28;20190;-74
2022/01/18 11:03:11;;;;;;;7.73;2.63;;;;;;;4.66;94.47;96384.69;5034007;28;20655;-74
2022/01/18 11:05:57;;;;;;;11.57;2.90;;;;;;;4.50;93.45;96376.13;5039187;28;20273;-74
2022/01/18 11:08:51;;;;;;;4.77;2.47;;;;;;;4.43;96.11;96378.81;5072061;28;20709;-74
2022/01/18 11:11:42;;;;;;;7.53;2.37;;;;;;;4.61;93.74;96370.75;5057849;28;20194;-74
2022/01/18 11:14:30;;;;;;;6.30;2.33;;;;;;;4.58;93.60;96369.56;5073279;28;20186;-74
2022/01/18 11:17:24;;;;;;;7.10;2.50;;;;;;;4.61;94.09;96362.66;5052761;28;20233;-74
2022/01/18 11:20:10;;;;;;;3.67;2.43;;;;;;;4.68;94.13;96355.28;5058355;28;20225;-74
2022/01/18 11:22:57;;;;;;;6.87;2.20;;;;;;;4.65;94.90;96356.06;5057885;28;20192;-74
2022/01/18 11:25:48;;;;;;;7.60;2.50;;;;;;;4.48;92.47;96361.44;5072417;28;20189;-74
2022/01/18 11:28:34;;;;;;;9.03;2.60;;;;;;;4.60;92.91;96339.44;5041972;28;20223;-75
2022/01/18 11:31:20;;;;;;;5.63;2.33;;;;;;;4.52;96.21;96364.94;5032427;28;20191;-73
2022/01/18 11:34:12;;;;;;;3.80;2.03;;;;;;;4.09;92.99;96357.81;5027272;28;20285;-74
2022/01/18 11:37:08;;;;;;;3.30;1.90;;;;;;;4.18;92.48;96348.19;5063455;28;20656;-74
2022/01/18 11:40:06;;;;;;;4.77;2.20;;;;;;;4.35;91.48;96341.31;5047947;28;20646;-75
2022/01/18 11:42:55;;;;;;;6.93;2.07;;;;;;;4.39;90.93;96339.41;5054099;28;20275;-74
2022/01/18 11:45:43;;;;;;;3.33;1.80;;;;;;;4.53;90.78;96353.72;5049596;28;20610;-74
2022/01/18 11:48:29;;;;;;;10.53;3.27;;;;;;;4.55;89.92;96345.22;5067554;28;20271;-74
2022/01/18 11:51:18;;;;;;;3.83;1.90;;;;;;;4.37;89.19;96342.47;5033695;28;20201;-74
2022/01/18 11:54:30;;;;;;;7.27;2.07;;;;;;;4.57;90.16;96346.41;5009414;28;20212;-74
2022/01/18 11:57:22;;;;;;;4.93;2.10;;;;;;;4.42;88.67;96339.41;5021442;28;20290;-74
2022/01/18 12:00:11;;;;;;;5.70;1.80;;;;;;;4.58;92.30;96339.06;5053035;28;20695;-74
2022/01/18 12:03:17;;;;;;;5.50;2.00;;;;;;;4.34;89.48;96342.47;5036920;28;20232;-73
2022/01/18 12:06:03;;;;;;;3.50;2.03;;;;;;;4.24;89.53;96335.09;5049627;28;20249;-73
2022/01/18 12:08:50;;;;;;;11.20;2.40;;;;;;;4.30;90.49;96334.34;5062507;28;20359;-73
2022/01/18 12:11:36;;;;;;;8.33;2.20;;;;;;;4.36;89.93;96321.97;5037859;28;20218;-73
2022/01/18 12:14:33;;;;;;;7.20;2.07;;;;;;;4.26;90.76;96333.53;5052268;28;20667;-73
2022/01/18 12:17:19;;;;;;;3.03;1.70;;;;;;;4.24;91.44;96333.16;5041496;28;20210;-74
2022/01/18 12:20:05;;;;;;;5.83;2.17;;;;;;;4.18;92.64;96331.19;5019234;28;20200;-73
2022/01/18 12:23:08;;;;;;;5.97;2.07;;;;;;;4.09;89.14;96326.13;5061124;28;20200;-74
2022/01/18 12:35:17;;;;;;;3.73;1.40;;;;;;;4.06;89.80;96309.91;5049584;28;20197;-74
2022/01/18 12:38:10;;;;;;;5.80;2.17;;;;;;;4.10;89.03;96319.59;5059401;28;20208;-73
2022/01/18 12:40:56;;;;;;;3.30;1.77;;;;;;;4.11;87.56;96307.63;5038461;28;20264;-74
2022/01/18 12:46:58;;;;;;;3.13;1.87;;;;;;;4.07;86.93;96314.97;5046759;28;20199;-73
2022/01/18 12:49:47;;;;;;;3.60;1.90;;;;;;;4.02;88.77;96318.00;5042023;28;20194;-73
2022/01/18 12:52:52;;;;;;;5.27;1.70;;;;;;;4.08;88.15;96313.78;5046178;28;20231;-73
2022/01/18 12:55:46;;;;;;;3.20;1.63;;;;;;;3.92;86.94;96307.16;5059826;28;20971;-73
2022/01/18 12:58:38;;;;;;;3.93;1.50;;;;;;;3.94;86.96;96308.31;5040678;28;20210;-73
2022/01/18 13:01:27;;;;;;;8.17;1.93;;;;;;;4.00;86.51;96311.44;5002931;28;20850;-73
2022/01/18 13:04:13;;;;;;;3.53;1.30;;;;;;;4.18;88.71;96304.16;5014334;28;20221;-73
2022/01/18 13:07:01;;;;;;;5.03;1.60;;;;;;;4.25;87.46;96294.16;5051774;28;20193;-74
2022/01/18 13:10:13;;;;;;;4.73;3.43;;;;;;;4.23;92.34;96293.75;5036112;28;20644;-74
2022/01/18 13:13:00;;;;;;;5.43;3.10;;;;;;;4.14;92.51;96297.97;5052013;28;20302;-74
2022/01/18 13:16:05;;;;;;;8.70;4.40;;;;;;;4.03;95.81;96289.81;5051841;28;20190;-73
2022/01/18 13:25:14;;;;;;;9.03;4.80;;;;;;;3.67;100.00;96298.94;5041595;28;20202;-74
2022/01/18 13:28:03;;;;;;;6.90;4.33;;;;;;;3.61;100.00;96300.44;5048425;28;20595;-74
2022/01/18 13:30:51;;;;;;;5.97;4.37;;;;;;;3.57;100.00;96305.03;5055775;28;20861;-74
2022/01/18 13:33:53;;;;;;;8.67;3.80;;;;;;;3.50;100.00;96305.00;5054069;28;20675;-73
2022/01/18 13:36:58;;;;;;;7.27;3.90;;;;;;;3.38;100.00;96310.72;5054455;28;20190;-74
2022/01/18 13:39:50;;;;;;;9.93;3.57;;;;;;;3.39;100.00;96326.53;5055697;28;20198;-74
2022/01/18 13:42:37;;;;;;;6.67;3.23;;;;;;;3.33;100.00;96311.06;5051247;28;20193;-74
2022/01/18 13:45:26;;;;;;;9.10;3.23;;;;;;;3.30;100.00;96322.63;5050670;28;20194;-74
2022/01/18 13:48:13;;;;;;;10.53;3.73;;;;;;;3.27;100.00;96315.28;5062934;28;20226;-74
2022/01/18 13:51:09;;;;;;;5.50;2.80;;;;;;;3.23;100.00;96301.75;5058450;28;20254;-74
2022/01/18 13:53:59;;;;;;;8.33;3.47;;;;;;;3.27;100.00;96317.97;5067155;28;20185;-73
2022/01/18 13:56:47;;;;;;;8.80;3.50;;;;;;;3.28;100.00;96314.13;5029425;28;20202;-74
2022/01/18 13:59:32;;;;;;;9.83;4.23;;;;;;;3.26;100.00;96328.00;5054466;28;20614;-74
2022/01/18 14:02:21;;;;;;;6.17;3.43;;;;;;;3.41;100.00;96313.44;5051357;28;20275;-74
2022/01/18 14:05:10;;;;;;;7.97;4.07;;;;;;;3.49;100.00;96316.97;5054804;28;20198;-73
2022/01/18 14:08:11;;;;;;;9.93;4.13;;;;;;;3.44;100.00;96303.81;5055969;28;20218;-74
2022/01/18 14:11:06;;;;;;;11.80;4.27;;;;;;;3.51;100.00;96309.28;5059263;28;20206;-75
2022/01/18 14:13:54;;;;;;;10.00;3.60;;;;;;;3.53;100.00;96298.84;5050101;28;20195;-74
2022/01/18 14:16:56;;;;;;;11.27;3.60;;;;;;;3.47;100.00;96301.16;5046722;28;20203;-74
2022/01/18 14:19:44;;;;;;;6.13;3.37;;;;;;;3.51;100.00;96301.16;5039878;28;20185;-74
2022/01/18 14:22:35;;;;;;;7.90;3.10;;;;;;;3.46;100.00;96296.88;5046272;28;20201;-74
2022/01/18 14:25:29;;;;;;;10.53;3.60;;;;;;;3.50;100.00;96294.97;5046243;28;20194;-74
2022/01/18 14:28:17;;;;;;;9.83;3.60;;;;;;;3.50;99.86;96296.91;5057938;28;20210;-74
2022/01/18 14:31:07;;;;;;;9.17;3.37;;;;;;;3.49;99.27;96303.47;5058853;28;20193;-73
2022/01/18 14:33:53;;;;;;;14.03;3.13;;;;;;;3.51;99.52;96301.91;5045586;28;20222;-74